createdAt,value
2022-11-28T00:01:22.853Z,6.78
2022-11-28T00:03:49.615Z,4.90
2022-11-28T00:06:16.659Z,7.20
2022-11-28T00:08:43.904Z,7.63
2022-11-28T00:11:13.912Z,6.38
2022-11-28T00:13:40.834Z,7.32
2022-11-28T00:16:09.303Z,7.75
2022-11-28T00:18:36.107Z,8.13
2022-11-28T00:21:05.966Z,5.93
2022-11-28T00:23:33.249Z,7.38
2022-11-28T00:26:02.850Z,7.03
2022-11-28T00:28:29.437Z,8.30
2022-11-28T00:30:56.015Z,7.30
2022-11-28T00:33:22.989Z,6.25
2022-11-28T00:35:49.664Z,7.57
2022-11-28T00:38:16.524Z,5.53
2022-11-28T00:40:43.091Z,6.00
2022-11-28T00:43:11.630Z,7.63
2022-11-28T00:45:38.190Z,6.90
2022-11-28T00:48:05.259Z,6.22
2022-11-28T00:50:31.763Z,5.30
2022-11-28T00:53:00.596Z,5.53
2022-11-28T00:55:27.462Z,4.90
2022-11-28T00:57:55.741Z,5.50
2022-11-28T01:00:23.922Z,4.55
2022-11-28T01:02:50.824Z,5.00
2022-11-28T01:05:17.576Z,4.20
2022-11-28T01:07:44.127Z,3.80
2022-11-28T01:10:11.825Z,4.40
2022-11-28T01:12:38.740Z,4.05
2022-11-28T01:15:08.317Z,3.45
2022-11-28T01:17:35.716Z,5.20
2022-11-28T01:20:08.112Z,3.63
2022-11-28T01:22:34.698Z,4.10
2022-11-28T01:25:01.217Z,3.60
2022-11-28T01:27:27.721Z,5.10
2022-11-28T01:29:54.249Z,5.80
2022-11-28T01:32:20.746Z,4.40
2022-11-28T01:34:47.347Z,6.45
2022-11-28T01:37:13.865Z,5.78
2022-11-28T01:39:40.561Z,5.43
2022-11-28T01:42:07.114Z,6.50
2022-11-28T01:44:33.545Z,5.10
2022-11-28T01:47:00.171Z,4.35
2022-11-28T01:49:31.617Z,4.95
2022-11-28T01:52:05.680Z,5.03
2022-11-28T01:54:35.126Z,6.97
2022-11-28T01:57:04.768Z,5.33
2022-11-28T01:59:37.107Z,4.97
2022-11-28T02:02:09.754Z,5.18
2022-11-28T02:04:37.447Z,5.32
2022-11-28T02:07:04.157Z,5.23
2022-11-28T02:09:30.724Z,5.93
2022-11-28T02:12:26.307Z,6.70
2022-11-28T02:14:58.891Z,5.15
2022-11-28T02:18:18.589Z,6.68
2022-11-28T02:21:14.155Z,5.80
2022-11-28T02:24:05.572Z,5.13
2022-11-28T02:26:34.938Z,5.60
2022-11-28T02:29:25.730Z,7.13
2022-11-28T02:32:25.077Z,5.55
2022-11-28T02:35:03.667Z,6.67
2022-11-28T02:37:41.667Z,6.53
2022-11-28T02:40:23.138Z,6.68
2022-11-28T02:43:20.476Z,6.18
2022-11-28T02:46:22.893Z,8.43
2022-11-28T02:48:55.545Z,6.97
2022-11-28T02:51:33.423Z,6.70
2022-11-28T02:54:03.694Z,5.28
2022-11-28T02:56:30.480Z,5.28
2022-11-28T02:58:57.153Z,5.60
2022-11-28T03:01:31.433Z,7.43
2022-11-28T03:04:12.488Z,7.25
2022-11-28T03:07:04.941Z,7.40
2022-11-28T03:10:12.704Z,6.90
2022-11-28T03:13:09.736Z,6.70
2022-11-28T03:15:50.346Z,6.63
2022-11-28T03:18:34.456Z,7.68
2022-11-28T03:21:12.844Z,6.57
2022-11-28T03:23:52.187Z,6.70
2022-11-28T03:26:37.094Z,6.78
2022-11-28T03:29:13.584Z,5.50
2022-11-28T03:31:45.139Z,7.15
2022-11-28T03:34:17.537Z,8.68
2022-11-28T03:36:55.147Z,7.75
2022-11-28T03:39:29.208Z,7.80
2022-11-28T03:42:08.918Z,7.30
2022-11-28T03:44:45.639Z,7.82
2022-11-28T03:47:12.522Z,8.82
2022-11-28T03:49:48.659Z,7.30
2022-11-28T03:52:22.178Z,8.85
2022-11-28T03:54:55.549Z,9.53
2022-11-28T03:57:34.423Z,9.25
2022-11-28T04:00:12.973Z,9.40
2022-11-28T04:02:45.308Z,7.63
2022-11-28T04:05:41.380Z,11.25
2022-11-28T04:08:29.730Z,10.17
2022-11-28T04:11:07.343Z,9.95
2022-11-28T04:13:45.825Z,11.85
2022-11-28T04:16:34.172Z,9.63
2022-11-28T04:19:18.886Z,12.82
2022-11-28T04:21:55.402Z,11.63
2022-11-28T04:24:28.533Z,13.45
2022-11-28T04:27:00.527Z,12.27
2022-11-28T04:29:31.973Z,9.60
2022-11-28T04:32:01.231Z,11.40
2022-11-28T04:34:30.776Z,12.20
2022-11-28T04:36:59.430Z,13.48
2022-11-28T04:39:27.574Z,14.13
2022-11-28T04:41:56.517Z,13.63
2022-11-28T04:44:40.108Z,12.65
2022-11-28T04:47:07.579Z,14.20
2022-11-28T04:49:34.225Z,15.00
2022-11-28T04:52:29.582Z,12.80
2022-11-28T04:55:02.238Z,13.27
2022-11-28T04:57:32.805Z,15.05
2022-11-28T05:00:02.769Z,14.77
2022-11-28T05:02:30.195Z,14.73
2022-11-28T05:04:56.840Z,14.48
2022-11-28T05:07:24.901Z,16.52
2022-11-28T05:09:51.766Z,16.88
2022-11-28T05:12:18.511Z,16.20
2022-11-28T05:14:45.126Z,15.38
2022-11-28T05:17:13.620Z,13.27
2022-11-28T05:19:40.209Z,15.65
2022-11-28T05:22:06.826Z,14.77
2022-11-28T05:24:33.319Z,16.80
2022-11-28T05:26:59.859Z,17.27
2022-11-28T05:29:26.387Z,14.15
2022-11-28T05:31:52.988Z,14.73
2022-11-28T05:34:19.638Z,16.80
2022-11-28T05:36:46.168Z,16.57
2022-11-28T05:39:12.700Z,17.48
2022-11-28T05:41:39.247Z,16.70
2022-11-28T05:44:05.867Z,12.98
2022-11-28T05:46:32.423Z,16.38
2022-11-28T05:48:59.305Z,10.23
2022-11-28T05:51:25.811Z,15.02
2022-11-28T05:53:52.331Z,14.40
2022-11-28T05:56:22.931Z,13.82
2022-11-28T05:58:49.744Z,14.90
2022-11-28T06:01:25.582Z,14.33
2022-11-28T06:03:58.310Z,15.07
2022-11-28T06:06:26.451Z,15.65
2022-11-28T06:08:53.112Z,16.20
2022-11-28T06:11:22.241Z,17.17
2022-11-28T06:13:50.128Z,16.67
2022-11-28T06:16:19.426Z,17.00
2022-11-28T06:18:46.371Z,14.88
2022-11-28T06:21:14.723Z,15.93
2022-11-28T06:23:41.561Z,17.00
2022-11-28T06:26:10.837Z,17.23
2022-11-28T06:28:37.383Z,15.45
2022-11-28T06:31:04.103Z,18.63
2022-11-28T06:33:30.653Z,17.98
2022-11-28T06:36:04.152Z,14.27
2022-11-28T06:38:31.553Z,16.90
2022-11-28T06:40:59.356Z,16.20
2022-11-28T06:43:26.038Z,18.50
2022-11-28T06:45:52.615Z,16.83
2022-11-28T06:48:20.069Z,18.02
2022-11-28T06:50:47.564Z,19.90
2022-11-28T06:53:14.626Z,18.23
2022-11-28T06:55:41.457Z,16.83
2022-11-28T06:58:08.021Z,19.48
2022-11-28T07:00:35.505Z,17.70
2022-11-28T07:03:02.263Z,17.97
2022-11-28T07:05:28.826Z,19.38
2022-11-28T07:07:55.363Z,18.77
2022-11-28T07:10:23.199Z,17.38
2022-11-28T07:12:59.368Z,18.55
2022-11-28T07:15:29.087Z,16.03
2022-11-28T07:17:55.657Z,13.35
2022-11-28T07:20:22.194Z,15.23
2022-11-28T07:22:48.868Z,17.33
2022-11-28T07:25:16.069Z,18.38
2022-11-28T07:27:42.920Z,18.90
2022-11-28T07:30:10.451Z,18.73
2022-11-28T07:32:40.723Z,17.05
2022-11-28T07:35:09.095Z,16.75
2022-11-28T07:37:36.291Z,17.35
2022-11-28T07:40:04.629Z,17.30
2022-11-28T07:42:31.185Z,13.15
2022-11-28T07:44:57.770Z,17.98
2022-11-28T07:47:24.677Z,15.25
2022-11-28T07:49:51.203Z,14.75
2022-11-28T07:52:17.714Z,16.77
2022-11-28T07:54:44.299Z,16.10
2022-11-28T07:57:12.706Z,16.55
2022-11-28T07:59:40.020Z,17.42
2022-11-28T08:02:07.305Z,16.67
2022-11-28T08:04:34.030Z,14.17
2022-11-28T08:07:00.914Z,16.15
2022-11-28T08:09:27.731Z,17.88
2022-11-28T08:11:54.330Z,19.05
2022-11-28T08:14:20.899Z,16.13
2022-11-28T08:16:47.546Z,15.93
2022-11-28T08:19:14.201Z,14.80
2022-11-28T08:21:40.797Z,15.27
2022-11-28T08:24:08.237Z,14.93
2022-11-28T08:26:35.609Z,9.73
2022-11-28T08:29:03.665Z,13.93
2022-11-28T08:31:36.577Z,13.10
2022-11-28T08:34:06.555Z,14.68
2022-11-28T08:36:33.655Z,13.25
2022-11-28T08:41:47.865Z,13.50
2022-11-28T08:44:14.386Z,12.07
2022-11-28T08:46:41.111Z,11.07
2022-11-28T08:49:07.849Z,11.52
2022-11-28T08:51:34.624Z,10.50
2022-11-28T08:54:01.215Z,9.67
2022-11-28T08:56:28.411Z,11.30
2022-11-28T08:58:55.611Z,11.32
2022-11-28T09:01:26.791Z,12.45
2022-11-28T09:03:55.467Z,11.18
2022-11-28T09:06:23.129Z,10.83
2022-11-28T09:08:50.803Z,11.68
2022-11-28T09:11:20.062Z,10.90
2022-11-28T09:13:46.911Z,11.23
2022-11-28T09:16:14.385Z,9.85
2022-11-28T09:18:41.082Z,10.97
2022-11-28T09:21:10.757Z,11.27
2022-11-28T09:23:39.083Z,11.38
2022-11-28T09:26:17.813Z,10.68
2022-11-28T09:28:45.002Z,10.25
2022-11-28T09:31:12.620Z,9.43
2022-11-28T09:33:39.275Z,10.18
2022-11-28T09:36:19.761Z,9.85
2022-11-28T09:38:46.697Z,8.63
2022-11-28T09:41:29.148Z,9.60
2022-11-28T09:44:20.944Z,7.87
2022-11-28T09:46:49.879Z,9.73
2022-11-28T09:49:24.142Z,9.35
2022-11-28T09:52:01.919Z,7.85
2022-11-28T09:54:44.685Z,9.50
2022-11-28T09:57:18.304Z,9.20
2022-11-28T09:59:46.320Z,9.85
2022-11-28T10:02:20.926Z,9.98
2022-11-28T10:05:01.665Z,7.18
2022-11-28T10:07:54.913Z,9.85
2022-11-28T10:10:21.947Z,10.03
2022-11-28T10:13:11.663Z,9.45
2022-11-28T10:15:41.066Z,9.52
2022-11-28T10:18:22.712Z,8.55
2022-11-28T10:20:55.075Z,8.48
2022-11-28T10:23:44.324Z,8.97
2022-11-28T10:26:26.184Z,9.00
2022-11-28T10:28:55.606Z,9.55
2022-11-28T10:31:42.859Z,9.73
2022-11-28T10:34:18.463Z,10.73
2022-11-28T10:36:57.348Z,10.10
2022-11-28T10:39:25.800Z,10.52
2022-11-28T10:42:14.189Z,10.30
2022-11-28T10:44:43.362Z,10.38
2022-11-28T10:47:32.910Z,9.27
2022-11-28T10:50:21.925Z,10.90
2022-11-28T10:53:16.809Z,10.10
2022-11-28T10:56:11.674Z,9.38
2022-11-28T10:59:09.791Z,10.40
2022-11-28T11:01:39.266Z,8.57
2022-11-28T11:04:06.389Z,9.47
2022-11-28T11:06:41.821Z,9.65
2022-11-28T11:09:14.744Z,9.27
2022-11-28T11:11:53.071Z,9.70
2022-11-28T11:14:34.934Z,9.27
2022-11-28T11:17:01.779Z,8.40
2022-11-28T11:19:36.743Z,8.25
2022-11-28T11:22:26.989Z,8.43
2022-11-28T11:25:20.473Z,10.23
2022-11-28T11:28:03.379Z,9.25
2022-11-28T11:30:31.323Z,7.73
2022-11-28T11:33:00.551Z,6.68
2022-11-28T11:35:35.895Z,7.57
2022-11-28T11:38:20.762Z,9.63
2022-11-28T11:40:51.361Z,8.70
2022-11-28T11:43:26.861Z,6.83
2022-11-28T11:46:16.294Z,8.88
2022-11-28T11:48:48.183Z,9.48
2022-11-28T11:51:32.653Z,8.88
2022-11-28T11:54:17.005Z,9.43
2022-11-28T11:56:47.315Z,9.70
2022-11-28T11:59:26.724Z,8.82
2022-11-28T12:01:59.279Z,9.68
2022-11-28T12:04:46.485Z,10.00
2022-11-28T12:07:26.412Z,10.02
2022-11-28T12:09:55.685Z,8.33
2022-11-28T12:12:29.279Z,10.95
2022-11-28T12:14:56.372Z,8.05
2022-11-28T12:17:48.895Z,10.75
2022-11-28T12:20:37.481Z,11.63
2022-11-28T12:23:27.502Z,9.40
2022-11-28T12:26:11.366Z,13.23
2022-11-28T12:28:47.552Z,13.30
2022-11-28T12:31:39.349Z,12.32
2022-11-28T12:34:33.013Z,13.43
2022-11-28T12:37:42.113Z,13.43
2022-11-28T12:40:38.254Z,13.55
2022-11-28T12:43:38.985Z,9.93
2022-11-28T12:46:23.960Z,13.02
2022-11-28T12:49:17.549Z,14.15
2022-11-28T12:52:14.305Z,13.10
2022-11-28T12:54:57.399Z,13.23
2022-11-28T12:57:30.637Z,13.38
2022-11-28T13:00:09.283Z,13.13
2022-11-28T13:03:10.989Z,11.70
2022-11-28T13:06:19.103Z,10.40
2022-11-28T13:09:03.412Z,11.77
2022-11-28T13:11:49.726Z,13.93
2022-11-28T13:14:36.360Z,11.20
2022-11-28T13:17:25.879Z,13.88
2022-11-28T13:20:00.546Z,13.33
2022-11-28T13:23:00.350Z,14.27
2022-11-28T13:25:33.092Z,12.48
2022-11-28T13:28:08.449Z,14.75
2022-11-28T13:30:45.799Z,14.30
2022-11-28T13:33:40.420Z,12.93
2022-11-28T13:38:34.969Z,14.23
2022-11-28T13:39:18.960Z,13.73
2022-11-28T13:45:17.146Z,9.00
2022-11-28T13:47:43.689Z,14.57
2022-11-28T13:50:25.349Z,15.38
2022-11-28T13:52:59.454Z,14.73
2022-11-28T13:55:46.741Z,15.57
2022-11-28T13:58:35.119Z,14.20
2022-11-28T14:01:17.829Z,13.90
2022-11-28T14:03:49.247Z,13.65
2022-11-28T14:06:22.909Z,15.40
2022-11-28T14:09:00.786Z,14.52
2022-11-28T14:12:07.762Z,15.32
2022-11-28T14:14:52.769Z,15.13
2022-11-28T14:17:40.247Z,15.48
2022-11-28T14:20:24.515Z,15.40
2022-11-28T14:22:57.019Z,14.95
2022-11-28T14:25:31.677Z,12.85
2022-11-28T14:28:14.782Z,13.47
2022-11-28T14:30:44.862Z,15.45
2022-11-28T14:33:23.464Z,13.95
2022-11-28T14:35:50.063Z,14.57
2022-11-28T14:38:32.182Z,13.77
2022-11-28T14:41:03.243Z,14.20
2022-11-28T14:43:31.105Z,14.02
2022-11-28T14:46:22.908Z,13.85
2022-11-28T14:48:58.871Z,12.73
2022-11-28T14:51:44.058Z,14.73
2022-11-28T14:54:43.815Z,14.93
2022-11-28T14:57:17.719Z,13.10
2022-11-28T14:59:44.787Z,15.20
2022-11-28T15:02:11.265Z,13.38
2022-11-28T15:04:49.396Z,17.83
2022-11-28T15:07:27.298Z,16.07
2022-11-28T15:10:07.512Z,15.85
2022-11-28T15:13:03.792Z,13.05
2022-11-28T15:15:31.980Z,15.00
2022-11-28T15:18:02.379Z,14.13
2022-11-28T15:20:35.463Z,15.97
2022-11-28T15:23:02.243Z,14.90
2022-11-28T15:25:35.660Z,13.25
2022-11-28T15:28:16.205Z,13.68
2022-11-28T15:30:48.824Z,13.30
2022-11-28T15:33:15.663Z,13.10
2022-11-28T15:35:56.951Z,13.27
2022-11-28T15:38:24.142Z,14.00
2022-11-28T15:40:52.839Z,14.10
2022-11-28T15:43:20.067Z,13.63
2022-11-28T15:45:58.507Z,13.40
2022-11-28T15:48:27.627Z,12.90
2022-11-28T15:50:54.625Z,14.60
2022-11-28T15:53:21.822Z,15.35
2022-11-28T15:56:07.216Z,14.82
2022-11-28T15:58:33.909Z,15.03
2022-11-28T16:01:04.896Z,14.02
2022-11-28T16:03:41.429Z,14.27
2022-11-28T16:06:08.486Z,15.30
2022-11-28T16:08:40.271Z,14.38
2022-11-28T16:11:10.024Z,15.30
2022-11-28T16:13:39.773Z,14.50
2022-11-28T16:16:12.922Z,15.10
2022-11-28T16:18:45.606Z,16.70
2022-11-28T16:21:14.001Z,16.80
2022-11-28T16:23:41.443Z,16.00
2022-11-28T16:26:22.031Z,18.73
2022-11-28T16:29:07.064Z,16.92
2022-11-28T16:31:34.805Z,18.05
2022-11-28T16:34:02.838Z,19.27
2022-11-28T16:36:37.431Z,17.97
2022-11-28T16:39:09.642Z,18.00
2022-11-28T16:41:37.781Z,17.75
2022-11-28T16:44:07.562Z,19.05
2022-11-28T16:46:39.969Z,18.42
2022-11-28T16:49:24.920Z,18.93
2022-11-28T16:52:13.575Z,19.52
2022-11-28T16:54:40.103Z,23.02
2022-11-28T16:57:16.780Z,23.35
2022-11-28T16:59:45.202Z,22.27
2022-11-28T17:02:17.746Z,21.60
2022-11-28T17:04:45.404Z,21.77
2022-11-28T17:07:14.665Z,22.85
2022-11-28T17:09:42.146Z,22.90
2022-11-28T17:12:22.718Z,21.45
2022-11-28T17:14:49.300Z,35.33
2022-11-28T17:17:18.108Z,29.48
2022-11-28T17:19:45.660Z,28.20
2022-11-28T17:22:15.803Z,25.73
2022-11-28T17:24:42.889Z,30.20
2022-11-28T17:27:12.624Z,27.50
2022-11-28T17:29:39.333Z,27.77
2022-11-28T17:32:06.151Z,21.00
2022-11-28T17:34:34.660Z,17.73
2022-11-28T17:37:02.067Z,19.73
2022-11-28T17:39:29.806Z,19.23
2022-11-28T17:41:57.470Z,18.42
2022-11-28T17:44:32.177Z,21.23
2022-11-28T17:47:00.634Z,21.30
2022-11-28T17:49:27.969Z,25.80
2022-11-28T17:51:55.980Z,20.80
2022-11-28T17:54:24.267Z,17.20
2022-11-28T17:56:52.007Z,18.50
2022-11-28T17:59:21.310Z,17.52
2022-11-28T18:01:48.221Z,17.75
2022-11-28T18:04:14.845Z,16.13
2022-11-28T18:06:47.859Z,17.85
2022-11-28T18:09:14.668Z,17.65
2022-11-28T18:11:42.304Z,19.77
2022-11-28T18:14:09.233Z,17.48
2022-11-28T18:16:36.263Z,16.80
2022-11-28T18:19:04.048Z,16.45
2022-11-28T18:21:30.940Z,18.08
2022-11-28T18:23:57.551Z,19.42
2022-11-28T18:26:26.172Z,20.70
2022-11-28T18:28:53.753Z,21.47
2022-11-28T18:31:25.417Z,20.67
2022-11-28T18:33:57.400Z,18.73
2022-11-28T18:36:28.567Z,20.20
2022-11-28T18:38:56.549Z,18.00
2022-11-28T18:41:23.590Z,19.20
2022-11-28T18:43:54.862Z,19.70
2022-11-28T18:46:21.494Z,19.00
2022-11-28T18:48:48.309Z,17.05
2022-11-28T18:51:24.954Z,17.85
2022-11-28T18:53:53.939Z,15.53
2022-11-28T18:56:21.174Z,16.90
2022-11-28T18:58:51.820Z,15.52
2022-11-28T19:01:28.686Z,17.25
2022-11-28T19:04:01.128Z,17.42
2022-11-28T19:06:28.065Z,16.37
2022-11-28T19:08:57.352Z,18.30
2022-11-28T19:11:24.399Z,15.57
2022-11-28T19:13:53.356Z,17.73
2022-11-28T19:16:25.608Z,17.63
2022-11-28T19:18:52.462Z,18.80
2022-11-28T19:21:21.899Z,16.33
2022-11-28T19:23:49.272Z,18.67
2022-11-28T19:26:21.999Z,17.02
2022-11-28T19:28:49.617Z,21.05
2022-11-28T19:31:27.125Z,20.80
2022-11-28T19:34:01.503Z,21.00
2022-11-28T19:36:30.402Z,21.65
2022-11-28T19:38:57.916Z,21.20
2022-11-28T19:41:27.570Z,26.05
2022-11-28T19:43:54.328Z,23.23
2022-11-28T19:46:20.902Z,20.70
2022-11-28T19:48:47.739Z,24.52
2022-11-28T19:51:14.330Z,22.95
2022-11-28T19:53:42.728Z,20.05
2022-11-28T19:56:14.939Z,22.60
2022-11-28T19:58:41.896Z,20.30
2022-11-28T20:01:14.342Z,18.88
2022-11-28T20:03:41.881Z,17.25
2022-11-28T20:06:16.327Z,19.50
2022-11-28T20:08:43.382Z,20.98
2022-11-28T20:11:14.721Z,20.88
2022-11-28T20:13:42.054Z,18.67
2022-11-28T20:16:11.221Z,18.92
2022-11-28T20:18:39.336Z,22.05
2022-11-28T20:21:17.720Z,19.98
2022-11-28T20:23:48.951Z,18.40
2022-11-28T20:26:17.673Z,16.48
2022-11-28T20:28:45.472Z,16.95
2022-11-28T20:31:20.763Z,15.48
2022-11-28T20:33:49.103Z,16.48
2022-11-28T20:36:18.431Z,16.17
2022-11-28T20:38:45.697Z,15.88
2022-11-28T20:41:14.123Z,16.73
2022-11-28T20:43:41.454Z,16.95
2022-11-28T20:46:14.810Z,15.60
2022-11-28T20:48:42.163Z,15.48
2022-11-28T20:51:10.611Z,16.77
2022-11-28T20:53:39.435Z,17.40
2022-11-28T20:56:08.568Z,16.58
2022-11-28T20:58:35.152Z,16.05
2022-11-28T21:01:01.869Z,15.40
2022-11-28T21:03:28.666Z,15.88
2022-11-28T21:06:00.651Z,17.25
2022-11-28T21:08:30.477Z,15.50
2022-11-28T21:10:57.460Z,16.20
2022-11-28T21:13:24.191Z,17.77
2022-11-28T21:15:52.017Z,17.02
2022-11-28T21:18:18.545Z,19.00
2022-11-28T21:20:46.585Z,17.48
2022-11-28T21:23:15.910Z,17.38
2022-11-28T21:25:43.612Z,15.10
2022-11-28T21:28:11.103Z,14.30
2022-11-28T21:30:44.066Z,15.82
2022-11-28T21:33:11.635Z,16.23
2022-11-28T21:35:39.270Z,16.48
2022-11-28T21:38:07.008Z,14.88
2022-11-28T21:40:33.867Z,16.55
2022-11-28T21:43:00.516Z,15.35
2022-11-28T21:45:27.622Z,15.52
2022-11-28T21:47:54.224Z,16.10
2022-11-28T21:50:20.769Z,15.30
2022-11-28T21:52:47.265Z,16.25
2022-11-28T21:55:13.751Z,14.75
2022-11-28T21:57:42.270Z,16.35
2022-11-28T22:00:20.747Z,15.73
2022-11-28T22:03:32.235Z,17.02
2022-11-28T22:05:43.340Z,15.35
2022-11-28T22:08:10.808Z,18.27
2022-11-28T22:10:37.818Z,17.23
2022-11-28T22:13:04.358Z,15.88
2022-11-28T22:15:30.869Z,15.00
2022-11-28T22:17:57.330Z,16.95
2022-11-28T22:20:23.878Z,17.15
2022-11-28T22:22:50.354Z,17.05
2022-11-28T22:25:17.022Z,15.45
2022-11-28T22:27:43.630Z,15.65
2022-11-28T22:30:10.609Z,30.05
2022-11-28T22:32:37.097Z,15.27
2022-11-28T22:35:03.818Z,15.20
2022-11-28T22:37:30.397Z,17.90
2022-11-28T22:39:56.901Z,15.55
2022-11-28T22:42:23.417Z,14.88
2022-11-28T22:44:49.927Z,16.80
2022-11-28T22:47:16.419Z,14.43
2022-11-28T22:49:42.934Z,14.88
2022-11-28T22:52:09.441Z,17.00
2022-11-28T22:54:35.992Z,17.42
2022-11-28T22:57:02.560Z,19.23
2022-11-28T22:59:30.173Z,19.35
2022-11-28T23:01:56.889Z,21.38
2022-11-28T23:04:23.525Z,21.23
2022-11-28T23:06:50.104Z,21.23
2022-11-28T23:09:16.855Z,21.17
2022-11-28T23:11:43.566Z,20.35
2022-11-28T23:14:13.244Z,19.67
2022-11-28T23:16:41.897Z,19.73
2022-11-28T23:19:12.488Z,21.23
2022-11-28T23:21:41.077Z,19.45
2022-11-28T23:24:11.944Z,23.00
2022-11-28T23:26:38.510Z,25.58
2022-11-28T23:29:05.777Z,23.63
2022-11-28T23:31:34.112Z,16.75
2022-11-28T23:34:01.283Z,18.73
2022-11-28T23:36:41.870Z,16.15
2022-11-28T23:39:22.589Z,16.58
2022-11-28T23:41:50.087Z,15.40
2022-11-28T23:44:18.263Z,16.85
2022-11-28T23:46:45.380Z,15.90
2022-11-28T23:49:12.646Z,12.77
2022-11-28T23:51:40.604Z,13.07
2022-11-28T23:54:08.515Z,12.38
2022-11-28T23:56:36.513Z,10.25
2022-11-28T23:59:06.052Z,9.73
